sensor_id;sensor_type;location;lat;lon;timestamp;P1;durP1;ratioP1;P2;durP2;ratioP2
79687;SDS011;69155;49.464;2.108;2023-04-25T00:01:00;6.93;;;4.57;;
79687;SDS011;69155;49.464;2.108;2023-04-25T00:03:27;6.15;;;4.20;;
79687;SDS011;69155;49.464;2.108;2023-04-25T00:05:52;6.43;;;3.67;;
79687;SDS011;69155;49.464;2.108;2023-04-25T00:08:17;6.67;;;3.80;;
79687;SDS011;69155;49.464;2.108;2023-04-25T00:10:42;6.07;;;3.83;;
79687;SDS011;69155;49.464;2.108;2023-04-25T00:13:08;7.67;;;4.07;;
79687;SDS011;69155;49.464;2.108;2023-04-25T00:15:33;4.87;;;3.20;;
79687;SDS011;69155;49.464;2.108;2023-04-25T00:18:00;5.25;;;3.50;;
79687;SDS011;69155;49.464;2.108;2023-04-25T00:20:26;4.70;;;3.17;;
79687;SDS011;69155;49.464;2.108;2023-04-25T00:22:54;10.05;;;3.50;;
79687;SDS011;69155;49.464;2.108;2023-04-25T00:25:20;4.32;;;3.47;;
79687;SDS011;69155;49.464;2.108;2023-04-25T00:27:45;7.27;;;3.30;;
79687;SDS011;69155;49.464;2.108;2023-04-25T00:30:14;6.53;;;4.53;;
79687;SDS011;69155;49.464;2.108;2023-04-25T00:32:39;11.15;;;5.40;;
79687;SDS011;69155;49.464;2.108;2023-04-25T00:35:05;8.83;;;5.40;;
79687;SDS011;69155;49.464;2.108;2023-04-25T00:37:30;8.82;;;3.80;;
79687;SDS011;69155;49.464;2.108;2023-04-25T00:39:57;6.97;;;3.83;;
79687;SDS011;69155;49.464;2.108;2023-04-25T00:42:22;18.98;;;6.28;;
79687;SDS011;69155;49.464;2.108;2023-04-25T00:44:47;47.77;;;12.97;;
79687;SDS011;69155;49.464;2.108;2023-04-25T00:47:12;26.70;;;9.17;;
79687;SDS011;69155;49.464;2.108;2023-04-25T00:49:38;13.10;;;5.88;;
79687;SDS011;69155;49.464;2.108;2023-04-25T00:52:05;6.87;;;4.33;;
79687;SDS011;69155;49.464;2.108;2023-04-25T00:54:31;7.22;;;3.80;;
79687;SDS011;69155;49.464;2.108;2023-04-25T00:56:56;7.43;;;4.00;;
79687;SDS011;69155;49.464;2.108;2023-04-25T00:59:21;12.07;;;4.53;;
79687;SDS011;69155;49.464;2.108;2023-04-25T01:01:47;9.33;;;4.00;;
79687;SDS011;69155;49.464;2.108;2023-04-25T01:04:12;5.77;;;3.77;;
79687;SDS011;69155;49.464;2.108;2023-04-25T01:06:38;7.97;;;3.88;;
79687;SDS011;69155;49.464;2.108;2023-04-25T01:09:06;5.90;;;3.93;;
79687;SDS011;69155;49.464;2.108;2023-04-25T01:11:35;8.63;;;4.25;;
79687;SDS011;69155;49.464;2.108;2023-04-25T01:14:00;7.97;;;4.68;;
79687;SDS011;69155;49.464;2.108;2023-04-25T01:16:26;5.90;;;4.15;;
79687;SDS011;69155;49.464;2.108;2023-04-25T01:18:52;7.27;;;3.60;;
79687;SDS011;69155;49.464;2.108;2023-04-25T01:21:19;9.57;;;4.80;;
79687;SDS011;69155;49.464;2.108;2023-04-25T01:23:45;7.05;;;3.75;;
79687;SDS011;69155;49.464;2.108;2023-04-25T01:26:11;6.10;;;3.90;;
79687;SDS011;69155;49.464;2.108;2023-04-25T01:28:37;6.65;;;4.78;;
79687;SDS011;69155;49.464;2.108;2023-04-25T01:31:04;5.35;;;3.53;;
79687;SDS011;69155;49.464;2.108;2023-04-25T01:33:30;8.10;;;4.88;;
79687;SDS011;69155;49.464;2.108;2023-04-25T01:35:55;7.43;;;5.40;;
79687;SDS011;69155;49.464;2.108;2023-04-25T01:38:21;9.03;;;5.03;;
79687;SDS011;69155;49.464;2.108;2023-04-25T01:40:49;7.70;;;5.10;;
79687;SDS011;69155;49.464;2.108;2023-04-25T01:43:15;7.43;;;4.80;;
79687;SDS011;69155;49.464;2.108;2023-04-25T01:45:41;6.47;;;4.93;;
79687;SDS011;69155;49.464;2.108;2023-04-25T01:48:09;8.25;;;5.30;;
79687;SDS011;69155;49.464;2.108;2023-04-25T01:50:35;7.35;;;5.18;;
79687;SDS011;69155;49.464;2.108;2023-04-25T01:53:00;6.63;;;5.07;;
79687;SDS011;69155;49.464;2.108;2023-04-25T01:55:27;13.25;;;5.65;;
79687;SDS011;69155;49.464;2.108;2023-04-25T01:57:52;8.17;;;5.53;;
79687;SDS011;69155;49.464;2.108;2023-04-25T02:00:17;10.93;;;6.27;;
79687;SDS011;69155;49.464;2.108;2023-04-25T02:02:42;9.03;;;5.57;;
79687;SDS011;69155;49.464;2.108;2023-04-25T02:05:08;12.40;;;6.07;;
79687;SDS011;69155;49.464;2.108;2023-04-25T02:07:35;8.80;;;6.22;;
79687;SDS011;69155;49.464;2.108;2023-04-25T02:10:00;9.90;;;6.03;;
79687;SDS011;69155;49.464;2.108;2023-04-25T02:12:26;7.27;;;5.47;;
79687;SDS011;69155;49.464;2.108;2023-04-25T02:14:52;7.82;;;5.22;;
79687;SDS011;69155;49.464;2.108;2023-04-25T02:17:17;8.70;;;5.73;;
79687;SDS011;69155;49.464;2.108;2023-04-25T02:19:43;9.97;;;5.60;;
79687;SDS011;69155;49.464;2.108;2023-04-25T02:22:08;9.75;;;6.05;;
79687;SDS011;69155;49.464;2.108;2023-04-25T02:24:33;10.03;;;5.23;;
79687;SDS011;69155;49.464;2.108;2023-04-25T02:27:02;8.07;;;6.05;;
79687;SDS011;69155;49.464;2.108;2023-04-25T02:29:33;11.15;;;5.57;;
79687;SDS011;69155;49.464;2.108;2023-04-25T02:31:59;9.45;;;6.15;;
79687;SDS011;69155;49.464;2.108;2023-04-25T02:34:24;11.33;;;5.57;;
79687;SDS011;69155;49.464;2.108;2023-04-25T02:36:49;8.73;;;5.13;;
79687;SDS011;69155;49.464;2.108;2023-04-25T02:39:16;8.63;;;5.60;;
79687;SDS011;69155;49.464;2.108;2023-04-25T02:41:41;8.25;;;5.63;;
79687;SDS011;69155;49.464;2.108;2023-04-25T02:44:06;5.67;;;4.43;;
79687;SDS011;69155;49.464;2.108;2023-04-25T02:46:31;9.27;;;5.10;;
79687;SDS011;69155;49.464;2.108;2023-04-25T02:48:56;6.60;;;4.27;;
79687;SDS011;69155;49.464;2.108;2023-04-25T02:51:22;7.00;;;4.00;;
79687;SDS011;69155;49.464;2.108;2023-04-25T02:53:47;7.70;;;4.13;;
79687;SDS011;69155;49.464;2.108;2023-04-25T02:56:12;8.27;;;3.93;;
79687;SDS011;69155;49.464;2.108;2023-04-25T02:58:37;7.20;;;3.83;;
79687;SDS011;69155;49.464;2.108;2023-04-25T03:01:03;4.43;;;3.63;;
79687;SDS011;69155;49.464;2.108;2023-04-25T03:03:28;6.67;;;4.27;;
79687;SDS011;69155;49.464;2.108;2023-04-25T03:05:53;5.23;;;4.00;;
79687;SDS011;69155;49.464;2.108;2023-04-25T03:08:18;5.38;;;3.63;;
79687;SDS011;69155;49.464;2.108;2023-04-25T03:10:44;5.47;;;3.77;;
79687;SDS011;69155;49.464;2.108;2023-04-25T03:13:09;8.43;;;4.18;;
79687;SDS011;69155;49.464;2.108;2023-04-25T03:15:35;9.53;;;4.13;;
79687;SDS011;69155;49.464;2.108;2023-04-25T03:18:00;7.03;;;4.13;;
79687;SDS011;69155;49.464;2.108;2023-04-25T03:20:26;5.33;;;3.37;;
79687;SDS011;69155;49.464;2.108;2023-04-25T03:22:51;5.80;;;3.63;;
79687;SDS011;69155;49.464;2.108;2023-04-25T03:25:16;4.53;;;3.20;;
79687;SDS011;69155;49.464;2.108;2023-04-25T03:27:41;4.77;;;3.77;;
79687;SDS011;69155;49.464;2.108;2023-04-25T03:30:07;5.30;;;3.63;;
79687;SDS011;69155;49.464;2.108;2023-04-25T03:32:32;6.20;;;3.35;;
79687;SDS011;69155;49.464;2.108;2023-04-25T03:34:58;5.17;;;3.70;;
79687;SDS011;69155;49.464;2.108;2023-04-25T03:37:23;6.43;;;3.53;;
79687;SDS011;69155;49.464;2.108;2023-04-25T03:39:48;6.30;;;3.80;;
79687;SDS011;69155;49.464;2.108;2023-04-25T03:42:13;6.23;;;3.37;;
79687;SDS011;69155;49.464;2.108;2023-04-25T03:44:38;6.30;;;3.83;;
79687;SDS011;69155;49.464;2.108;2023-04-25T03:47:04;4.63;;;3.50;;
79687;SDS011;69155;49.464;2.108;2023-04-25T03:49:29;6.47;;;3.43;;
79687;SDS011;69155;49.464;2.108;2023-04-25T03:51:54;5.13;;;3.87;;
79687;SDS011;69155;49.464;2.108;2023-04-25T03:54:19;7.77;;;3.67;;
79687;SDS011;69155;49.464;2.108;2023-04-25T03:56:45;6.07;;;3.20;;
79687;SDS011;69155;49.464;2.108;2023-04-25T03:59:10;7.70;;;3.83;;
79687;SDS011;69155;49.464;2.108;2023-04-25T04:01:35;4.97;;;3.50;;
79687;SDS011;69155;49.464;2.108;2023-04-25T04:04:03;7.95;;;3.58;;
79687;SDS011;69155;49.464;2.108;2023-04-25T04:06:29;7.70;;;4.00;;
79687;SDS011;69155;49.464;2.108;2023-04-25T04:08:54;10.53;;;3.80;;
79687;SDS011;69155;49.464;2.108;2023-04-25T04:11:20;10.13;;;3.55;;
79687;SDS011;69155;49.464;2.108;2023-04-25T04:13:45;5.43;;;3.50;;
79687;SDS011;69155;49.464;2.108;2023-04-25T04:16:10;6.40;;;3.50;;
79687;SDS011;69155;49.464;2.108;2023-04-25T04:18:36;7.30;;;4.32;;
79687;SDS011;69155;49.464;2.108;2023-04-25T04:21:01;6.00;;;3.73;;
79687;SDS011;69155;49.464;2.108;2023-04-25T04:23:26;4.63;;;3.33;;
79687;SDS011;69155;49.464;2.108;2023-04-25T04:25:53;4.70;;;3.55;;
79687;SDS011;69155;49.464;2.108;2023-04-25T04:28:19;8.27;;;3.90;;
79687;SDS011;69155;49.464;2.108;2023-04-25T04:30:44;14.93;;;4.43;;
79687;SDS011;69155;49.464;2.108;2023-04-25T04:33:12;5.78;;;3.78;;
79687;SDS011;69155;49.464;2.108;2023-04-25T04:35:37;6.90;;;4.13;;
79687;SDS011;69155;49.464;2.108;2023-04-25T04:38:02;7.55;;;4.18;;
79687;SDS011;69155;49.464;2.108;2023-04-25T04:40:28;7.30;;;4.17;;
79687;SDS011;69155;49.464;2.108;2023-04-25T04:42:53;7.83;;;3.90;;
79687;SDS011;69155;49.464;2.108;2023-04-25T04:45:21;5.85;;;3.83;;
79687;SDS011;69155;49.464;2.108;2023-04-25T04:47:47;9.50;;;4.03;;
79687;SDS011;69155;49.464;2.108;2023-04-25T04:50:13;6.78;;;3.97;;
79687;SDS011;69155;49.464;2.108;2023-04-25T04:52:39;6.40;;;3.72;;
79687;SDS011;69155;49.464;2.108;2023-04-25T04:55:05;7.07;;;3.50;;
79687;SDS011;69155;49.464;2.108;2023-04-25T04:57:30;6.43;;;3.70;;
79687;SDS011;69155;49.464;2.108;2023-04-25T04:59:57;6.38;;;3.83;;
79687;SDS011;69155;49.464;2.108;2023-04-25T05:02:23;17.88;;;7.18;;
79687;SDS011;69155;49.464;2.108;2023-04-25T05:04:48;15.77;;;7.73;;
79687;SDS011;69155;49.464;2.108;2023-04-25T05:07:16;27.42;;;11.15;;
79687;SDS011;69155;49.464;2.108;2023-04-25T05:09:41;25.80;;;11.53;;
79687;SDS011;69155;49.464;2.108;2023-04-25T05:12:06;31.00;;;12.33;;
79687;SDS011;69155;49.464;2.108;2023-04-25T05:14:32;22.33;;;11.25;;
79687;SDS011;69155;49.464;2.108;2023-04-25T05:16:57;19.65;;;8.82;;
79687;SDS011;69155;49.464;2.108;2023-04-25T05:19:23;28.60;;;11.68;;
79687;SDS011;69155;49.464;2.108;2023-04-25T05:21:48;24.97;;;12.13;;
79687;SDS011;69155;49.464;2.108;2023-04-25T05:24:32;27.02;;;11.45;;
79687;SDS011;69155;49.464;2.108;2023-04-25T05:27:00;25.20;;;10.68;;
79687;SDS011;69155;49.464;2.108;2023-04-25T05:29:25;19.50;;;10.67;;
79687;SDS011;69155;49.464;2.108;2023-04-25T05:31:51;28.83;;;10.60;;
79687;SDS011;69155;49.464;2.108;2023-04-25T05:34:16;30.77;;;11.13;;
79687;SDS011;69155;49.464;2.108;2023-04-25T05:36:41;22.07;;;8.17;;
79687;SDS011;69155;49.464;2.108;2023-04-25T05:39:09;18.08;;;7.35;;
79687;SDS011;69155;49.464;2.108;2023-04-25T05:41:35;24.65;;;8.38;;
79687;SDS011;69155;49.464;2.108;2023-04-25T05:44:00;14.50;;;7.00;;
79687;SDS011;69155;49.464;2.108;2023-04-25T05:46:25;12.20;;;6.70;;
79687;SDS011;69155;49.464;2.108;2023-04-25T05:48:51;14.77;;;7.13;;
79687;SDS011;69155;49.464;2.108;2023-04-25T05:51:18;19.40;;;7.73;;
79687;SDS011;69155;49.464;2.108;2023-04-25T05:53:44;22.58;;;7.43;;
79687;SDS011;69155;49.464;2.108;2023-04-25T05:56:09;16.27;;;6.60;;
79687;SDS011;69155;49.464;2.108;2023-04-25T05:58:35;12.50;;;5.87;;
79687;SDS011;69155;49.464;2.108;2023-04-25T06:01:01;14.47;;;6.83;;
79687;SDS011;69155;49.464;2.108;2023-04-25T06:03:30;15.23;;;5.60;;
79687;SDS011;69155;49.464;2.108;2023-04-25T06:05:56;12.40;;;6.32;;
79687;SDS011;69155;49.464;2.108;2023-04-25T06:08:21;19.07;;;5.73;;
79687;SDS011;69155;49.464;2.108;2023-04-25T06:10:46;16.03;;;6.57;;
79687;SDS011;69155;49.464;2.108;2023-04-25T06:13:11;12.10;;;5.57;;
79687;SDS011;69155;49.464;2.108;2023-04-25T06:15:37;17.67;;;5.03;;
79687;SDS011;69155;49.464;2.108;2023-04-25T06:18:02;11.53;;;5.17;;
79687;SDS011;69155;49.464;2.108;2023-04-25T06:20:27;13.60;;;5.53;;
79687;SDS011;69155;49.464;2.108;2023-04-25T06:22:52;16.87;;;5.37;;
79687;SDS011;69155;49.464;2.108;2023-04-25T06:25:18;11.03;;;5.03;;
79687;SDS011;69155;49.464;2.108;2023-04-25T06:27:43;10.20;;;4.53;;
79687;SDS011;69155;49.464;2.108;2023-04-25T06:30:08;13.47;;;4.47;;
79687;SDS011;69155;49.464;2.108;2023-04-25T06:32:34;12.15;;;4.18;;
79687;SDS011;69155;49.464;2.108;2023-04-25T06:35:00;14.33;;;4.77;;
79687;SDS011;69155;49.464;2.108;2023-04-25T06:37:25;11.90;;;3.85;;
79687;SDS011;69155;49.464;2.108;2023-04-25T06:39:50;9.67;;;4.17;;
79687;SDS011;69155;49.464;2.108;2023-04-25T06:42:24;14.35;;;4.60;;
79687;SDS011;69155;49.464;2.108;2023-04-25T06:44:50;13.70;;;4.83;;
79687;SDS011;69155;49.464;2.108;2023-04-25T06:47:15;12.80;;;4.40;;
79687;SDS011;69155;49.464;2.108;2023-04-25T06:49:40;10.10;;;4.13;;
79687;SDS011;69155;49.464;2.108;2023-04-25T06:52:05;12.93;;;4.40;;
79687;SDS011;69155;49.464;2.108;2023-04-25T06:54:30;9.47;;;4.37;;
79687;SDS011;69155;49.464;2.108;2023-04-25T06:56:58;15.13;;;4.25;;
79687;SDS011;69155;49.464;2.108;2023-04-25T06:59:25;15.05;;;4.22;;
79687;SDS011;69155;49.464;2.108;2023-04-25T07:01:51;13.70;;;4.07;;
79687;SDS011;69155;49.464;2.108;2023-04-25T07:04:16;10.60;;;3.50;;
79687;SDS011;69155;49.464;2.108;2023-04-25T07:06:41;13.87;;;4.80;;
79687;SDS011;69155;49.464;2.108;2023-04-25T07:09:09;18.83;;;4.25;;
79687;SDS011;69155;49.464;2.108;2023-04-25T07:11:35;18.23;;;4.23;;
79687;SDS011;69155;49.464;2.108;2023-04-25T07:14:00;11.80;;;3.53;;
79687;SDS011;69155;49.464;2.108;2023-04-25T07:16:26;10.17;;;3.70;;
79687;SDS011;69155;49.464;2.108;2023-04-25T07:18:51;21.30;;;3.93;;
79687;SDS011;69155;49.464;2.108;2023-04-25T07:21:16;12.90;;;3.77;;
79687;SDS011;69155;49.464;2.108;2023-04-25T07:23:41;13.47;;;4.27;;
79687;SDS011;69155;49.464;2.108;2023-04-25T07:26:06;17.17;;;3.80;;
79687;SDS011;69155;49.464;2.108;2023-04-25T07:28:32;17.27;;;4.13;;
79687;SDS011;69155;49.464;2.108;2023-04-25T07:30:57;8.87;;;3.87;;
79687;SDS011;69155;49.464;2.108;2023-04-25T07:33:23;11.90;;;4.03;;
79687;SDS011;69155;49.464;2.108;2023-04-25T07:35:48;8.87;;;4.03;;
79687;SDS011;69155;49.464;2.108;2023-04-25T07:38:13;13.33;;;3.87;;
79687;SDS011;69155;49.464;2.108;2023-04-25T07:40:44;14.67;;;3.40;;
79687;SDS011;69155;49.464;2.108;2023-04-25T07:43:10;9.68;;;3.70;;
79687;SDS011;69155;49.464;2.108;2023-04-25T07:45:37;8.00;;;3.38;;
79687;SDS011;69155;49.464;2.108;2023-04-25T07:48:02;13.03;;;3.77;;
79687;SDS011;69155;49.464;2.108;2023-04-25T07:50:28;23.05;;;4.50;;
79687;SDS011;69155;49.464;2.108;2023-04-25T07:52:53;11.73;;;3.93;;
79687;SDS011;69155;49.464;2.108;2023-04-25T07:55:20;16.03;;;4.40;;
79687;SDS011;69155;49.464;2.108;2023-04-25T07:57:45;8.10;;;3.30;;
79687;SDS011;69155;49.464;2.108;2023-04-25T08:00:11;21.07;;;4.23;;
79687;SDS011;69155;49.464;2.108;2023-04-25T08:02:37;16.98;;;3.38;;
79687;SDS011;69155;49.464;2.108;2023-04-25T08:05:02;8.45;;;3.90;;
79687;SDS011;69155;49.464;2.108;2023-04-25T08:07:27;14.80;;;3.97;;
79687;SDS011;69155;49.464;2.108;2023-04-25T08:09:53;9.90;;;3.20;;
79687;SDS011;69155;49.464;2.108;2023-04-25T08:12:18;19.23;;;4.45;;
79687;SDS011;69155;49.464;2.108;2023-04-25T08:14:44;19.13;;;4.53;;
79687;SDS011;69155;49.464;2.108;2023-04-25T08:17:09;12.27;;;4.27;;
79687;SDS011;69155;49.464;2.108;2023-04-25T08:19:34;17.53;;;4.60;;
79687;SDS011;69155;49.464;2.108;2023-04-25T08:21:59;23.42;;;4.43;;
79687;SDS011;69155;49.464;2.108;2023-04-25T08:24:25;14.27;;;4.13;;
79687;SDS011;69155;49.464;2.108;2023-04-25T08:26:50;15.05;;;4.32;;
79687;SDS011;69155;49.464;2.108;2023-04-25T08:29:16;14.50;;;5.00;;
79687;SDS011;69155;49.464;2.108;2023-04-25T08:31:41;13.87;;;4.00;;
79687;SDS011;69155;49.464;2.108;2023-04-25T08:34:06;18.33;;;4.70;;
79687;SDS011;69155;49.464;2.108;2023-04-25T08:36:31;20.83;;;4.77;;
79687;SDS011;69155;49.464;2.108;2023-04-25T08:38:57;14.10;;;3.80;;
79687;SDS011;69155;49.464;2.108;2023-04-25T08:41:22;11.27;;;3.60;;
79687;SDS011;69155;49.464;2.108;2023-04-25T08:43:57;15.88;;;4.00;;
79687;SDS011;69155;49.464;2.108;2023-04-25T08:46:25;8.98;;;3.45;;
79687;SDS011;69155;49.464;2.108;2023-04-25T08:48:50;12.95;;;4.28;;
79687;SDS011;69155;49.464;2.108;2023-04-25T08:51:23;16.00;;;4.10;;
79687;SDS011;69155;49.464;2.108;2023-04-25T08:53:51;9.90;;;3.53;;
79687;SDS011;69155;49.464;2.108;2023-04-25T08:56:16;8.73;;;3.28;;
79687;SDS011;69155;49.464;2.108;2023-04-25T08:58:50;12.43;;;3.97;;
79687;SDS011;69155;49.464;2.108;2023-04-25T09:01:15;13.32;;;3.58;;
79687;SDS011;69155;49.464;2.108;2023-04-25T09:03:41;13.60;;;3.53;;
79687;SDS011;69155;49.464;2.108;2023-04-25T09:06:13;15.30;;;4.53;;
79687;SDS011;69155;49.464;2.108;2023-04-25T09:08:40;17.98;;;4.13;;
79687;SDS011;69155;49.464;2.108;2023-04-25T09:11:06;8.43;;;3.25;;
79687;SDS011;69155;49.464;2.108;2023-04-25T09:13:31;13.63;;;3.97;;
79687;SDS011;69155;49.464;2.108;2023-04-25T09:15:57;24.37;;;5.07;;
79687;SDS011;69155;49.464;2.108;2023-04-25T09:18:31;13.70;;;3.50;;
79687;SDS011;69155;49.464;2.108;2023-04-25T09:20:58;13.32;;;3.80;;
79687;SDS011;69155;49.464;2.108;2023-04-25T09:23:29;12.68;;;4.40;;
79687;SDS011;69155;49.464;2.108;2023-04-25T09:25:55;8.40;;;3.70;;
79687;SDS011;69155;49.464;2.108;2023-04-25T09:28:24;13.60;;;4.82;;
79687;SDS011;69155;49.464;2.108;2023-04-25T09:30:58;25.13;;;4.40;;
79687;SDS011;69155;49.464;2.108;2023-04-25T09:33:33;11.52;;;3.30;;
79687;SDS011;69155;49.464;2.108;2023-04-25T09:38:25;15.52;;;4.20;;
79687;SDS011;69155;49.464;2.108;2023-04-25T09:40:51;10.40;;;3.20;;
79687;SDS011;69155;49.464;2.108;2023-04-25T09:43:20;16.67;;;3.92;;
79687;SDS011;69155;49.464;2.108;2023-04-25T09:45:46;13.05;;;3.92;;
79687;SDS011;69155;49.464;2.108;2023-04-25T09:48:21;9.07;;;3.42;;
79687;SDS011;69155;49.464;2.108;2023-04-25T09:51:09;7.07;;;3.58;;
79687;SDS011;69155;49.464;2.108;2023-04-25T09:53:36;12.07;;;3.80;;
79687;SDS011;69155;49.464;2.108;2023-04-25T09:56:05;19.98;;;3.85;;
79687;SDS011;69155;49.464;2.108;2023-04-25T09:58:34;9.13;;;3.97;;
79687;SDS011;69155;49.464;2.108;2023-04-25T10:01:01;16.08;;;4.63;;
79687;SDS011;69155;49.464;2.108;2023-04-25T10:03:28;14.25;;;3.72;;
79687;SDS011;69155;49.464;2.108;2023-04-25T10:05:54;12.00;;;4.13;;
79687;SDS011;69155;49.464;2.108;2023-04-25T10:08:20;13.27;;;3.72;;
79687;SDS011;69155;49.464;2.108;2023-04-25T10:10:49;13.18;;;4.22;;
79687;SDS011;69155;49.464;2.108;2023-04-25T10:13:15;9.65;;;3.30;;
79687;SDS011;69155;49.464;2.108;2023-04-25T10:15:41;14.10;;;4.20;;
79687;SDS011;69155;49.464;2.108;2023-04-25T10:18:06;7.78;;;3.90;;
79687;SDS011;69155;49.464;2.108;2023-04-25T10:20:32;9.45;;;3.88;;
79687;SDS011;69155;49.464;2.108;2023-04-25T10:22:58;10.27;;;3.35;;
79687;SDS011;69155;49.464;2.108;2023-04-25T10:25:26;10.38;;;3.55;;
79687;SDS011;69155;49.464;2.108;2023-04-25T10:27:52;10.67;;;3.30;;
79687;SDS011;69155;49.464;2.108;2023-04-25T10:30:17;13.07;;;4.78;;
79687;SDS011;69155;49.464;2.108;2023-04-25T10:32:43;10.90;;;3.10;;
79687;SDS011;69155;49.464;2.108;2023-04-25T10:40:24;31.55;;;3.80;;
79687;SDS011;69155;49.464;2.108;2023-04-25T10:42:52;16.00;;;3.75;;
79687;SDS011;69155;49.464;2.108;2023-04-25T10:45:18;10.18;;;3.10;;
79687;SDS011;69155;49.464;2.108;2023-04-25T10:47:44;12.37;;;3.23;;
79687;SDS011;69155;49.464;2.108;2023-04-25T10:50:10;11.68;;;3.13;;
79687;SDS011;69155;49.464;2.108;2023-04-25T10:52:36;10.88;;;3.30;;
79687;SDS011;69155;49.464;2.108;2023-04-25T10:55:03;10.93;;;3.00;;
79687;SDS011;69155;49.464;2.108;2023-04-25T10:59:58;13.55;;;4.25;;
79687;SDS011;69155;49.464;2.108;2023-04-25T11:02:24;7.22;;;3.13;;
79687;SDS011;69155;49.464;2.108;2023-04-25T11:04:55;15.32;;;3.40;;
79687;SDS011;69155;49.464;2.108;2023-04-25T11:09:55;12.52;;;3.63;;
79687;SDS011;69155;49.464;2.108;2023-04-25T11:12:20;14.73;;;4.43;;
79687;SDS011;69155;49.464;2.108;2023-04-25T11:14:48;14.57;;;3.33;;
79687;SDS011;69155;49.464;2.108;2023-04-25T11:17:19;11.45;;;3.58;;
79687;SDS011;69155;49.464;2.108;2023-04-25T11:19:47;9.90;;;3.15;;
79687;SDS011;69155;49.464;2.108;2023-04-25T11:22:13;8.82;;;2.97;;
79687;SDS011;69155;49.464;2.108;2023-04-25T11:24:38;14.07;;;3.50;;
79687;SDS011;69155;49.464;2.108;2023-04-25T11:27:03;8.57;;;3.63;;
79687;SDS011;69155;49.464;2.108;2023-04-25T11:29:30;16.92;;;4.13;;
79687;SDS011;69155;49.464;2.108;2023-04-25T11:31:55;13.43;;;3.83;;
79687;SDS011;69155;49.464;2.108;2023-04-25T11:34:22;7.68;;;4.00;;
79687;SDS011;69155;49.464;2.108;2023-04-25T11:36:48;14.27;;;4.10;;
79687;SDS011;69155;49.464;2.108;2023-04-25T11:39:13;15.37;;;4.10;;
79687;SDS011;69155;49.464;2.108;2023-04-25T11:41:40;15.05;;;4.72;;
79687;SDS011;69155;49.464;2.108;2023-04-25T11:44:05;18.02;;;4.45;;
79687;SDS011;69155;49.464;2.108;2023-04-25T11:46:33;10.15;;;4.35;;
79687;SDS011;69155;49.464;2.108;2023-04-25T11:48:59;12.57;;;6.10;;
79687;SDS011;69155;49.464;2.108;2023-04-25T11:51:24;17.98;;;5.75;;
79687;SDS011;69155;49.464;2.108;2023-04-25T11:53:51;15.98;;;5.45;;
79687;SDS011;69155;49.464;2.108;2023-04-25T11:56:16;8.00;;;4.47;;
79687;SDS011;69155;49.464;2.108;2023-04-25T11:58:57;14.50;;;4.87;;
79687;SDS011;69155;49.464;2.108;2023-04-25T12:01:29;9.30;;;3.97;;
79687;SDS011;69155;49.464;2.108;2023-04-25T12:03:55;12.07;;;4.28;;
79687;SDS011;69155;49.464;2.108;2023-04-25T12:06:20;20.75;;;4.53;;
79687;SDS011;69155;49.464;2.108;2023-04-25T12:08:58;6.33;;;3.23;;
79687;SDS011;69155;49.464;2.108;2023-04-25T12:11:24;13.77;;;4.20;;
79687;SDS011;69155;49.464;2.108;2023-04-25T12:13:51;9.07;;;3.15;;
79687;SDS011;69155;49.464;2.108;2023-04-25T12:16:17;13.88;;;3.95;;
79687;SDS011;69155;49.464;2.108;2023-04-25T12:18:42;9.35;;;3.10;;
79687;SDS011;69155;49.464;2.108;2023-04-25T12:21:08;7.60;;;3.55;;
79687;SDS011;69155;49.464;2.108;2023-04-25T12:23:34;17.58;;;3.58;;
79687;SDS011;69155;49.464;2.108;2023-04-25T12:26:03;9.25;;;3.50;;
79687;SDS011;69155;49.464;2.108;2023-04-25T12:28:28;6.87;;;3.27;;
79687;SDS011;69155;49.464;2.108;2023-04-25T12:33:22;9.70;;;3.83;;
79687;SDS011;69155;49.464;2.108;2023-04-25T12:35:48;12.43;;;3.90;;
79687;SDS011;69155;49.464;2.108;2023-04-25T12:40:47;10.38;;;3.85;;
79687;SDS011;69155;49.464;2.108;2023-04-25T12:43:12;8.07;;;3.80;;
79687;SDS011;69155;49.464;2.108;2023-04-25T12:45:37;23.67;;;5.07;;
79687;SDS011;69155;49.464;2.108;2023-04-25T18:49:26;12.02;;;5.07;;
79687;SDS011;69155;49.464;2.108;2023-04-25T18:51:55;13.30;;;6.33;;
79687;SDS011;69155;49.464;2.108;2023-04-25T18:54:32;16.60;;;5.90;;
79687;SDS011;69155;49.464;2.108;2023-04-25T18:56:57;22.83;;;7.60;;
79687;SDS011;69155;49.464;2.108;2023-04-25T18:59:25;22.85;;;8.82;;
79687;SDS011;69155;49.464;2.108;2023-04-25T19:01:52;18.77;;;9.40;;
79687;SDS011;69155;49.464;2.108;2023-04-25T19:04:39;17.50;;;8.70;;
79687;SDS011;69155;49.464;2.108;2023-04-25T19:10:03;8.98;;;5.15;;
79687;SDS011;69155;49.464;2.108;2023-04-25T19:12:38;14.07;;;4.63;;
79687;SDS011;69155;49.464;2.108;2023-04-25T19:15:31;8.35;;;4.07;;
79687;SDS011;69155;49.464;2.108;2023-04-25T19:18:03;5.53;;;3.53;;
79687;SDS011;69155;49.464;2.108;2023-04-25T19:20:56;12.05;;;4.55;;
79687;SDS011;69155;49.464;2.108;2023-04-25T19:26:33;18.13;;;4.47;;
79687;SDS011;69155;49.464;2.108;2023-04-25T19:29:23;12.27;;;4.18;;
79687;SDS011;69155;49.464;2.108;2023-04-25T19:32:13;10.90;;;3.83;;
79687;SDS011;69155;49.464;2.108;2023-04-25T19:34:41;8.75;;;4.10;;
79687;SDS011;69155;49.464;2.108;2023-04-25T19:40:32;7.25;;;3.25;;
79687;SDS011;69155;49.464;2.108;2023-04-25T19:46:33;9.93;;;4.03;;
79687;SDS011;69155;49.464;2.108;2023-04-25T19:49:26;9.02;;;3.50;;
79687;SDS011;69155;49.464;2.108;2023-04-25T19:55:19;14.60;;;5.32;;
79687;SDS011;69155;49.464;2.108;2023-04-25T20:01:14;10.63;;;3.97;;
